Time;durP1;ratioP1;P1;durP2;ratioP2;P2;SDS_P1;SDS_P2;PMS_P1;PMS_P2;Temp;Humidity;BMP_temperature;BMP_pressure;BME280_temperature;BME280_humidity;BME280_pressure;Samples;Min_cycle;Max_cycle;Signal;HPM_P1;HPM_P2
2021/06/30 00:01:38;;;;;;;11.40;6.80;;;21.40;82.80;;;;;;5036959;28;20112;-68
2021/06/30 00:04:03;;;;;;;10.85;7.22;;;21.50;82.80;;;;;;5054641;28;20479;-68
2021/06/30 00:06:30;;;;;;;10.18;6.40;;;21.50;82.50;;;;;;5054242;28;20155;-68
2021/06/30 00:08:56;;;;;;;11.52;6.53;;;21.50;82.70;;;;;;5054339;28;20083;-67
2021/06/30 00:11:22;;;;;;;11.95;6.45;;;21.50;82.50;;;;;;5036740;28;20474;-68
2021/06/30 00:13:48;;;;;;;11.23;6.80;;;21.60;82.50;;;;;;5054622;28;20025;-68
2021/06/30 00:16:14;;;;;;;11.95;6.63;;;21.60;82.40;;;;;;5054578;28;20029;-68
2021/06/30 00:18:39;;;;;;;14.30;8.98;;;21.70;82.30;;;;;;5053624;28;20017;-67
2021/06/30 00:21:05;;;;;;;11.68;7.05;;;21.60;82.70;;;;;;5054398;28;20443;-67
2021/06/30 00:23:31;;;;;;;11.48;6.85;;;21.70;82.30;;;;;;5054423;28;20568;-67
2021/06/30 00:25:56;;;;;;;13.70;7.40;;;21.70;82.20;;;;;;5054257;28;20422;-68
2021/06/30 00:28:23;;;;;;;11.68;7.35;;;21.70;82.50;;;;;;5054099;28;20047;-68
2021/06/30 00:30:48;;;;;;;15.10;9.65;;;21.70;82.30;;;;;;5054090;28;20490;-67
2021/06/30 00:33:14;;;;;;;16.35;10.27;;;21.70;82.40;;;;;;5054334;28;20021;-67
2021/06/30 00:35:40;;;;;;;16.58;10.10;;;21.70;82.50;;;;;;5054162;28;20581;-67
2021/06/30 00:38:05;;;;;;;17.17;10.55;;;21.70;82.60;;;;;;5053898;28;20028;-67
2021/06/30 00:40:31;;;;;;;17.10;10.15;;;21.70;82.70;;;;;;5036005;28;20064;-68
2021/06/30 00:42:56;;;;;;;15.30;9.57;;;21.70;82.70;;;;;;5054025;28;20032;-68
2021/06/30 00:45:22;;;;;;;21.45;11.05;;;21.70;82.50;;;;;;5052641;28;20577;-67
2021/06/30 00:47:48;;;;;;;16.92;10.80;;;21.70;82.50;;;;;;5053682;28;20013;-67
2021/06/30 00:50:18;;;;;;;17.50;11.45;;;21.70;82.50;;;;;;5052362;28;20025;-67
2021/06/30 00:52:44;;;;;;;16.77;10.57;;;21.70;82.60;;;;;;5035678;28;20021;-67
2021/06/30 00:55:10;;;;;;;16.38;11.20;;;21.70;82.60;;;;;;5053850;28;20021;-67
2021/06/30 00:57:36;;;;;;;17.08;10.00;;;21.70;82.40;;;;;;5053462;28;20486;-67
2021/06/30 01:00:05;;;;;;;15.25;10.48;;;21.70;82.40;;;;;;5035674;28;20116;-67
2021/06/30 01:02:30;;;;;;;16.42;10.13;;;21.70;82.40;;;;;;5053359;28;20033;-67
2021/06/30 01:04:56;;;;;;;16.63;11.13;;;21.70;82.30;;;;;;5053683;28;20163;-67
2021/06/30 01:07:21;;;;;;;18.05;10.82;;;21.80;82.20;;;;;;5035374;28;20032;-68
2021/06/30 01:09:47;;;;;;;16.92;10.98;;;21.80;82.30;;;;;;5053585;28;20025;-67
2021/06/30 01:12:12;;;;;;;16.25;10.63;;;21.70;82.20;;;;;;5053447;28;20040;-67
2021/06/30 01:14:38;;;;;;;16.17;9.90;;;21.70;82.20;;;;;;5050452;28;20040;-68
2021/06/30 01:17:06;;;;;;;19.80;11.13;;;21.70;82.50;;;;;;5047290;28;20024;-68
2021/06/30 01:19:34;;;;;;;17.25;11.30;;;21.70;82.20;;;;;;5052810;28;20549;-67
2021/06/30 01:22:00;;;;;;;14.43;9.98;;;21.70;82.10;;;;;;5053452;28;20451;-67
2021/06/30 01:24:25;;;;;;;17.00;10.07;;;21.70;82.50;;;;;;5053248;28;20035;-68
2021/06/30 01:26:51;;;;;;;16.75;11.32;;;21.70;82.30;;;;;;5051704;28;20032;-67
2021/06/30 01:29:20;;;;;;;16.52;10.57;;;21.80;82.40;;;;;;5053126;28;20025;-68
2021/06/30 01:31:46;;;;;;;17.63;11.35;;;21.60;82.60;;;;;;5034808;28;20432;-68
2021/06/30 01:34:12;;;;;;;16.60;10.55;;;21.50;83.40;;;;;;5035212;28;20025;-67
2021/06/30 01:36:52;;;;;;;18.90;11.93;;;21.40;84.20;;;;;;5052666;28;20036;-68
2021/06/30 01:39:20;;;;;;;17.30;11.83;;;21.20;85.10;;;;;;5035121;28;20029;-68
2021/06/30 01:41:46;;;;;;;15.95;10.55;;;21.00;86.00;;;;;;5052809;28;20271;-68
2021/06/30 01:44:12;;;;;;;17.80;11.15;;;21.00;86.20;;;;;;5052834;28;20056;-69
2021/06/30 01:46:39;;;;;;;16.55;11.48;;;21.10;86.00;;;;;;5052703;28;20076;-69
2021/06/30 01:49:05;;;;;;;16.95;10.98;;;21.00;86.20;;;;;;5052468;28;20068;-67
2021/06/30 01:51:32;;;;;;;17.67;11.23;;;20.90;86.60;;;;;;5051810;28;20036;-68
2021/06/30 01:53:59;;;;;;;16.40;11.20;;;20.80;87.40;;;;;;5052890;28;20025;-68
2021/06/30 01:56:26;;;;;;;16.83;11.15;;;20.70;87.80;;;;;;5042855;28;20025;-68
2021/06/30 01:59:04;;;;;;;16.67;10.85;;;20.80;87.50;;;;;;5014717;28;20033;-68
2021/06/30 02:01:30;;;;;;;18.55;11.82;;;20.90;86.90;;;;;;5032328;28;20048;-67
2021/06/30 02:03:57;;;;;;;17.05;10.90;;;20.90;86.80;;;;;;5032585;28;20386;-67
2021/06/30 02:06:24;;;;;;;17.90;11.68;;;21.00;86.70;;;;;;5032418;28;20439;-68
2021/06/30 02:08:51;;;;;;;15.60;9.63;;;21.10;85.70;;;;;;5043996;28;20048;-67
2021/06/30 02:11:17;;;;;;;15.35;9.75;;;21.20;85.40;;;;;;5052446;28;20037;-67
2021/06/30 02:13:43;;;;;;;19.25;10.82;;;21.30;85.10;;;;;;5052016;28;20029;-67
2021/06/30 02:16:09;;;;;;;17.27;10.82;;;21.30;85.20;;;;;;5052365;28;20028;-67
2021/06/30 02:18:34;;;;;;;15.30;10.10;;;21.30;85.10;;;;;;5034037;28;20025;-67
2021/06/30 02:21:00;;;;;;;13.57;9.32;;;21.30;84.70;;;;;;5034252;28;20029;-67
2021/06/30 02:23:25;;;;;;;15.40;10.13;;;21.40;84.50;;;;;;5052201;28;20032;-67
2021/06/30 02:25:51;;;;;;;18.25;11.02;;;21.40;84.40;;;;;;5034218;28;20060;-67
2021/06/30 02:28:16;;;;;;;17.10;10.80;;;21.30;84.40;;;;;;5051861;28;20025;-67
2021/06/30 02:30:42;;;;;;;16.00;10.70;;;21.20;84.30;;;;;;5052047;28;20024;-67
2021/06/30 02:33:07;;;;;;;18.58;10.95;;;21.20;84.80;;;;;;5051741;28;20025;-68
2021/06/30 02:35:34;;;;;;;15.88;9.45;;;21.30;84.60;;;;;;5051958;28;20119;-68
2021/06/30 02:38:00;;;;;;;17.92;10.23;;;21.40;84.30;;;;;;5051665;28;20105;-67
2021/06/30 02:40:28;;;;;;;17.05;10.10;;;21.30;83.90;;;;;;5051807;28;20068;-67
2021/06/30 02:42:56;;;;;;;15.30;10.07;;;21.40;83.90;;;;;;5051886;28;20020;-68
2021/06/30 02:45:22;;;;;;;17.27;10.43;;;21.40;83.90;;;;;;5051757;28;20100;-67
2021/06/30 02:47:49;;;;;;;18.05;11.10;;;21.30;84.20;;;;;;5051332;28;20036;-67
2021/06/30 02:50:16;;;;;;;14.80;9.63;;;21.20;84.50;;;;;;5035841;28;20060;-68
2021/06/30 02:52:43;;;;;;;15.00;9.30;;;21.00;85.30;;;;;;5048947;28;20065;-68
2021/06/30 02:55:09;;;;;;;15.15;9.50;;;21.00;85.80;;;;;;5051521;28;20047;-68
2021/06/30 02:57:35;;;;;;;16.67;9.45;;;21.00;85.10;;;;;;5018960;28;20029;-67
2021/06/30 03:00:01;;;;;;;13.95;8.57;;;21.00;84.70;;;;;;5031111;28;20385;-68
2021/06/30 03:02:26;;;;;;;15.07;9.25;;;21.10;85.10;;;;;;5013837;28;20026;-67
2021/06/30 03:04:52;;;;;;;15.45;8.82;;;21.10;84.60;;;;;;5031507;28;20032;-68
2021/06/30 03:07:18;;;;;;;12.95;8.65;;;21.10;84.60;;;;;;5031289;28;20040;-67
2021/06/30 03:09:43;;;;;;;14.70;8.77;;;21.00;84.60;;;;;;5045698;28;20483;-67
2021/06/30 03:12:09;;;;;;;13.65;8.55;;;20.90;85.10;;;;;;5033236;28;20025;-68
2021/06/30 03:14:34;;;;;;;13.48;8.02;;;20.70;85.50;;;;;;5051374;28;20060;-68
2021/06/30 03:17:00;;;;;;;13.18;8.25;;;20.70;85.80;;;;;;5049927;28;20108;-67
2021/06/30 03:19:26;;;;;;;11.82;7.80;;;20.60;85.90;;;;;;5033083;28;20064;-68
2021/06/30 03:21:51;;;;;;;13.90;7.20;;;20.60;86.10;;;;;;5051406;28;20116;-67
2021/06/30 03:24:17;;;;;;;11.18;7.13;;;20.60;85.70;;;;;;5051630;28;20150;-68
2021/06/30 03:26:42;;;;;;;10.52;6.40;;;20.60;85.20;;;;;;5037399;28;20074;-65
2021/06/30 03:29:08;;;;;;;12.40;6.40;;;20.60;85.10;;;;;;5037428;28;20013;-68
2021/06/30 03:31:33;;;;;;;10.98;6.53;;;20.80;84.70;;;;;;5037313;28;20029;-68
2021/06/30 03:34:00;;;;;;;10.55;6.10;;;20.90;83.80;;;;;;5037498;28;20025;-67
2021/06/30 03:36:26;;;;;;;10.23;5.93;;;20.90;84.10;;;;;;5037401;28;20036;-68
2021/06/30 03:38:51;;;;;;;10.85;6.28;;;20.90;83.30;;;;;;5055019;28;20033;-68
2021/06/30 03:41:17;;;;;;;12.05;6.13;;;20.80;84.10;;;;;;5037090;28;20033;-67
2021/06/30 03:43:42;;;;;;;13.20;6.20;;;20.70;84.70;;;;;;5055233;28;20029;-67
2021/06/30 03:46:09;;;;;;;9.77;5.75;;;20.70;84.40;;;;;;5054853;28;20393;-67
2021/06/30 03:48:35;;;;;;;10.95;5.60;;;20.60;85.10;;;;;;5054855;28;20029;-67
2021/06/30 03:51:00;;;;;;;9.30;5.78;;;20.60;85.00;;;;;;5055028;28;20379;-67
2021/06/30 03:53:26;;;;;;;8.55;4.97;;;20.70;84.50;;;;;;5053829;28;20108;-66
2021/06/30 03:55:51;;;;;;;8.85;4.93;;;20.80;84.50;;;;;;5054907;28;20474;-67
2021/06/30 03:58:17;;;;;;;7.90;4.50;;;20.80;84.50;;;;;;5053359;28;20033;-67
2021/06/30 04:00:43;;;;;;;9.60;4.95;;;20.90;84.20;;;;;;5052931;28;20036;-67
2021/06/30 04:03:08;;;;;;;11.77;5.88;;;21.00;83.80;;;;;;5054847;28;20394;-67
2021/06/30 04:05:34;;;;;;;8.63;5.30;;;20.90;84.00;;;;;;5054736;28;20021;-67
2021/06/30 04:07:59;;;;;;;9.38;5.78;;;20.90;84.10;;;;;;5036464;28;20021;-66
2021/06/30 04:10:25;;;;;;;9.80;4.90;;;20.80;83.80;;;;;;5054682;28;20434;-67
2021/06/30 04:12:50;;;;;;;10.93;5.60;;;20.80;85.10;;;;;;5054664;28;20025;-68
2021/06/30 04:15:16;;;;;;;8.45;5.20;;;20.70;84.50;;;;;;5054618;28;20028;-68
2021/06/30 04:17:41;;;;;;;10.55;5.88;;;20.70;84.80;;;;;;5054294;28;20036;-67
2021/06/30 04:20:09;;;;;;;10.82;5.78;;;20.80;84.20;;;;;;5054547;28;20025;-67
2021/06/30 04:22:36;;;;;;;9.05;5.22;;;20.90;84.10;;;;;;5036441;28;20025;-68
2021/06/30 04:25:04;;;;;;;9.52;4.90;;;20.90;83.50;;;;;;5054457;28;20033;-66
2021/06/30 04:27:31;;;;;;;9.95;5.88;;;20.90;83.50;;;;;;5054071;28;20036;-67
2021/06/30 04:29:57;;;;;;;9.63;5.82;;;20.90;83.00;;;;;;5054379;28;20100;-68
2021/06/30 04:32:22;;;;;;;10.45;5.65;;;20.90;83.40;;;;;;5054014;28;20013;-67
2021/06/30 04:34:48;;;;;;;9.32;5.95;;;20.90;83.10;;;;;;5054296;28;20021;-66
2021/06/30 04:37:13;;;;;;;10.25;5.35;;;20.80;83.60;;;;;;5035336;28;20033;-67
2021/06/30 04:39:39;;;;;;;11.55;5.30;;;20.70;84.00;;;;;;5035320;28;20478;-66
2021/06/30 04:42:04;;;;;;;10.80;5.63;;;20.60;84.70;;;;;;5034552;28;20037;-68
2021/06/30 04:44:30;;;;;;;10.20;4.95;;;20.60;84.30;;;;;;5039653;28;20043;-67
2021/06/30 04:46:55;;;;;;;8.23;4.90;;;20.60;84.00;;;;;;5041830;28;20030;-69
2021/06/30 04:49:21;;;;;;;10.60;5.07;;;20.60;84.00;;;;;;5017017;28;20116;-68
2021/06/30 04:51:47;;;;;;;10.73;5.30;;;20.60;83.70;;;;;;5027362;28;20456;-67
2021/06/30 04:54:13;;;;;;;8.85;4.97;;;20.50;84.70;;;;;;5024221;28;20017;-66
2021/06/30 04:56:39;;;;;;;8.68;4.95;;;20.60;84.10;;;;;;5046766;28;20025;-69
2021/06/30 04:59:06;;;;;;;10.30;4.60;;;20.60;83.90;;;;;;5039913;28;20083;-66
2021/06/30 05:01:32;;;;;;;9.05;4.07;;;20.70;83.50;;;;;;5046736;28;20068;-63
2021/06/30 05:03:58;;;;;;;10.43;4.55;;;20.80;83.70;;;;;;5041106;28;20084;-65
2021/06/30 05:06:23;;;;;;;9.25;4.30;;;20.80;83.40;;;;;;5036321;28;20029;-66
2021/06/30 05:08:49;;;;;;;9.45;4.00;;;20.90;83.20;;;;;;5040365;28;20118;-66
2021/06/30 05:11:14;;;;;;;8.52;4.43;;;21.00;83.10;;;;;;5027050;28;20444;-67
2021/06/30 05:13:40;;;;;;;8.77;4.40;;;21.00;82.90;;;;;;5036816;28;20029;-67
2021/06/30 05:16:06;;;;;;;8.43;3.67;;;21.00;82.70;;;;;;5046047;28;20082;-66
2021/06/30 05:18:31;;;;;;;9.35;4.45;;;21.00;82.50;;;;;;5044385;28;20379;-67
2021/06/30 05:20:57;;;;;;;8.75;4.63;;;21.00;82.40;;;;;;5042522;28;20035;-66
2021/06/30 05:23:22;;;;;;;8.93;4.35;;;21.10;82.70;;;;;;5025557;28;20106;-67
2021/06/30 05:25:48;;;;;;;9.48;4.40;;;21.10;82.60;;;;;;5038059;28;20032;-67
2021/06/30 05:28:13;;;;;;;7.57;4.50;;;21.10;82.10;;;;;;5043251;28;20681;-65
2021/06/30 05:30:39;;;;;;;9.70;4.65;;;21.00;82.30;;;;;;5040040;28;20024;-66
2021/06/30 05:33:04;;;;;;;9.48;4.82;;;21.00;83.10;;;;;;5036837;28;20032;-67
2021/06/30 05:35:30;;;;;;;7.63;4.90;;;20.90;84.10;;;;;;5046505;28;20156;-66
2021/06/30 05:37:56;;;;;;;10.05;4.88;;;20.90;82.20;;;;;;5046602;28;20025;-66
2021/06/30 05:40:21;;;;;;;9.63;4.50;;;20.90;83.40;;;;;;5046185;28;20029;-67
2021/06/30 05:42:47;;;;;;;8.82;4.53;;;20.80;83.30;;;;;;5028877;28;20024;-67
2021/06/30 05:45:16;;;;;;;9.27;3.97;;;20.80;81.40;;;;;;5028417;28;20021;-65
2021/06/30 05:47:45;;;;;;;8.50;4.05;;;20.90;82.90;;;;;;5027657;28;20380;-64
2021/06/30 05:50:15;;;;;;;7.53;3.78;;;21.00;82.30;;;;;;5027874;28;20029;-67
2021/06/30 05:52:41;;;;;;;8.68;4.00;;;21.00;81.60;;;;;;5046281;28;20022;-67
2021/06/30 05:55:08;;;;;;;7.90;3.42;;;21.10;81.00;;;;;;5046170;28;20031;-65
2021/06/30 05:57:35;;;;;;;8.30;3.95;;;21.10;80.70;;;;;;5046309;28;20040;-67
2021/06/30 06:00:01;;;;;;;7.03;3.78;;;21.10;81.10;;;;;;5027865;28;20440;-68
2021/06/30 06:02:27;;;;;;;7.20;3.28;;;21.10;80.60;;;;;;5045867;28;20032;-66
2021/06/30 06:04:53;;;;;;;6.78;3.20;;;21.10;80.40;;;;;;5027954;28;20021;-66
2021/06/30 06:07:18;;;;;;;9.98;3.38;;;21.10;80.40;;;;;;5045864;28;20091;-66
2021/06/30 06:09:44;;;;;;;7.82;3.47;;;21.20;80.40;;;;;;5045943;28;20381;-68
2021/06/30 06:12:09;;;;;;;7.15;3.28;;;21.20;80.10;;;;;;5045903;28;20036;-67
2021/06/30 06:14:34;;;;;;;8.90;3.30;;;21.20;80.00;;;;;;5045614;28;20487;-66
2021/06/30 06:17:00;;;;;;;9.35;3.60;;;21.10;80.40;;;;;;5046058;28;20563;-67
2021/06/30 06:19:26;;;;;;;8.88;3.70;;;21.20;80.20;;;;;;5027837;28;20028;-67
2021/06/30 06:21:51;;;;;;;6.90;3.10;;;21.20;79.90;;;;;;5027914;28;20022;-67
2021/06/30 06:24:17;;;;;;;6.25;3.03;;;21.10;80.00;;;;;;5008159;28;20029;-66
2021/06/30 06:26:43;;;;;;;5.95;3.17;;;20.90;80.80;;;;;;5033456;28;20108;-66
2021/06/30 06:29:09;;;;;;;6.32;3.15;;;21.00;80.60;;;;;;5016468;28;20025;-66
2021/06/30 06:31:35;;;;;;;7.97;3.15;;;21.10;80.00;;;;;;5034634;28;20025;-66
2021/06/30 06:34:01;;;;;;;9.10;3.35;;;21.10;80.00;;;;;;5018048;28;20027;-66
2021/06/30 06:36:26;;;;;;;6.15;3.30;;;21.10;80.10;;;;;;5014796;28;20021;-69
2021/06/30 06:38:52;;;;;;;8.73;3.00;;;21.00;80.40;;;;;;5037674;28;20402;-67
2021/06/30 06:41:18;;;;;;;8.93;3.67;;;21.00;80.50;;;;;;5014583;28;20119;-67
2021/06/30 06:43:43;;;;;;;10.13;4.13;;;21.10;80.00;;;;;;5045220;28;20029;-67
2021/06/30 06:46:12;;;;;;;8.45;3.88;;;21.00;80.40;;;;;;5044990;28;20367;-67
2021/06/30 06:48:37;;;;;;;8.48;4.25;;;20.90;80.90;;;;;;5027267;28;20078;-65
2021/06/30 06:51:04;;;;;;;11.00;4.20;;;20.90;80.90;;;;;;5045055;28;20103;-67
2021/06/30 06:53:29;;;;;;;8.18;4.72;;;20.90;81.30;;;;;;5045009;28;20028;-69
2021/06/30 06:55:57;;;;;;;9.88;4.35;;;20.90;80.00;;;;;;5045309;28;20037;-68
2021/06/30 06:58:23;;;;;;;7.43;3.80;;;20.90;80.20;;;;;;5026852;28;20545;-68
2021/06/30 07:00:48;;;;;;;8.85;4.40;;;21.00;80.10;;;;;;5044894;28;20040;-67
2021/06/30 07:03:14;;;;;;;8.10;4.25;;;21.10;79.80;;;;;;5043990;28;20044;-67
2021/06/30 07:05:40;;;;;;;12.30;3.90;;;21.20;79.70;;;;;;5043181;28;20117;-66
2021/06/30 07:08:05;;;;;;;9.70;5.13;;;21.30;79.20;;;;;;5043050;28;20063;-65
2021/06/30 07:10:31;;;;;;;11.07;4.10;;;21.30;78.60;;;;;;5038964;28;20040;-68
2021/06/30 07:12:57;;;;;;;9.65;4.82;;;21.50;78.60;;;;;;5027593;28;20053;-66
2021/06/30 07:15:23;;;;;;;12.50;6.13;;;21.50;78.70;;;;;;5038706;28;20026;-67
2021/06/30 07:17:48;;;;;;;10.55;6.63;;;21.30;79.20;;;;;;5044539;28;20123;-67
2021/06/30 07:20:14;;;;;;;10.20;6.85;;;21.20;78.90;;;;;;5044940;28;20098;-68
2021/06/30 07:22:39;;;;;;;13.18;7.10;;;21.00;79.80;;;;;;5044927;28;20059;-68
2021/06/30 07:25:05;;;;;;;11.68;7.65;;;20.90;80.10;;;;;;5026874;28;20021;-70
2021/06/30 07:27:31;;;;;;;12.77;8.02;;;20.80;80.00;;;;;;5022716;28;20116;-66
2021/06/30 07:29:56;;;;;;;12.50;8.23;;;20.90;80.00;;;;;;5043963;28;20032;-67
2021/06/30 07:32:22;;;;;;;11.60;8.20;;;20.90;80.00;;;;;;5043940;28;20033;-67
2021/06/30 07:34:47;;;;;;;10.27;7.38;;;21.00;79.30;;;;;;5044514;28;20250;-64
2021/06/30 07:37:13;;;;;;;11.10;7.22;;;21.20;79.00;;;;;;5044441;28;20147;-67
2021/06/30 07:39:40;;;;;;;12.48;8.07;;;21.40;78.00;;;;;;5044428;28;20466;-64
2021/06/30 07:42:06;;;;;;;12.75;8.13;;;21.50;78.00;;;;;;5044755;28;20040;-67
2021/06/30 07:44:31;;;;;;;14.48;9.27;;;21.50;78.40;;;;;;5044647;28;20028;-64
2021/06/30 07:46:57;;;;;;;12.20;9.23;;;21.30;77.70;;;;;;5044488;28;20029;-67
2021/06/30 07:49:22;;;;;;;13.40;9.93;;;21.20;78.90;;;;;;5026633;28;20314;-65
2021/06/30 07:51:50;;;;;;;14.85;10.63;;;21.30;78.90;;;;;;5040530;28;20028;-64
2021/06/30 07:54:16;;;;;;;17.00;10.40;;;21.20;79.20;;;;;;5024456;28;20528;-64
2021/06/30 07:56:41;;;;;;;15.20;11.02;;;21.10;78.60;;;;;;5044417;28;20037;-66
2021/06/30 07:59:09;;;;;;;16.02;11.05;;;21.20;78.10;;;;;;5044117;28;20029;-66
2021/06/30 08:01:35;;;;;;;15.15;10.50;;;21.30;77.80;;;;;;5044865;28;20452;-66
2021/06/30 08:04:00;;;;;;;15.50;11.18;;;21.40;77.80;;;;;;5044671;28;20104;-64
2021/06/30 08:06:26;;;;;;;16.38;11.63;;;21.40;78.20;;;;;;5026752;28;20037;-66
2021/06/30 08:08:52;;;;;;;16.48;11.75;;;21.20;78.80;;;;;;5044389;28;20043;-66
2021/06/30 08:11:18;;;;;;;17.65;11.93;;;21.30;78.40;;;;;;5033774;28;20539;-67
2021/06/30 08:13:44;;;;;;;15.13;11.30;;;21.20;78.50;;;;;;5028164;28;20021;-68
2021/06/30 08:16:10;;;;;;;17.17;11.98;;;21.20;78.00;;;;;;5028737;28;20026;-67
2021/06/30 08:18:35;;;;;;;15.45;11.40;;;21.40;78.10;;;;;;5031747;28;20395;-65
2021/06/30 08:21:01;;;;;;;16.92;11.43;;;21.50;77.90;;;;;;5021089;28;20107;-67
2021/06/30 08:23:26;;;;;;;17.08;11.73;;;21.30;78.80;;;;;;5029931;28;20160;-64
2021/06/30 08:25:52;;;;;;;18.30;12.35;;;21.30;79.00;;;;;;5042859;28;20441;-66
2021/06/30 08:28:19;;;;;;;18.33;12.00;;;21.20;79.00;;;;;;5047352;28;20032;-67
2021/06/30 08:30:44;;;;;;;17.45;11.40;;;21.10;78.60;;;;;;5047647;28;20025;-65
2021/06/30 08:33:10;;;;;;;17.35;11.90;;;21.00;78.70;;;;;;5047733;28;20497;-66
2021/06/30 08:35:36;;;;;;;16.02;11.82;;;21.00;78.30;;;;;;5041425;28;20036;-66
2021/06/30 08:38:02;;;;;;;15.43;11.05;;;21.10;77.80;;;;;;5038231;28;20560;-66
2021/06/30 08:40:27;;;;;;;15.60;11.75;;;21.20;78.00;;;;;;5045215;28;20497;-65
2021/06/30 08:42:53;;;;;;;16.98;10.82;;;21.30;78.00;;;;;;5047896;28;20025;-66
2021/06/30 08:45:18;;;;;;;15.43;11.15;;;21.30;77.80;;;;;;5029623;28;20121;-68
2021/06/30 08:47:44;;;;;;;15.45;11.38;;;21.20;77.40;;;;;;5040209;28;20040;-65
2021/06/30 08:50:11;;;;;;;16.38;11.68;;;21.30;78.20;;;;;;5026649;28;20021;-63
2021/06/30 08:52:37;;;;;;;17.10;12.25;;;21.30;77.60;;;;;;5045141;28;20029;-68
2021/06/30 08:55:06;;;;;;;16.02;11.88;;;21.20;78.00;;;;;;5029476;28;20112;-66
2021/06/30 08:57:32;;;;;;;16.70;11.85;;;21.20;78.00;;;;;;5046673;28;20029;-64
2021/06/30 08:59:58;;;;;;;19.08;12.75;;;21.30;78.20;;;;;;5028072;28;20032;-66
2021/06/30 09:02:24;;;;;;;16.75;11.38;;;21.30;77.50;;;;;;5047096;28;20791;-64
2021/06/30 09:04:59;;;;;;;17.20;11.85;;;21.30;77.40;;;;;;5029526;28;20068;-66
2021/06/30 09:07:25;;;;;;;17.27;12.20;;;21.30;77.60;;;;;;5028848;28;20451;-65
2021/06/30 09:09:51;;;;;;;33.80;14.60;;;21.40;78.10;;;;;;5046791;28;20113;-66
2021/06/30 09:12:34;;;;;;;17.77;12.27;;;21.40;77.80;;;;;;5047074;28;20044;-67
2021/06/30 09:15:14;;;;;;;23.48;13.13;;;21.30;77.00;;;;;;5047131;28;20036;-67
2021/06/30 09:17:39;;;;;;;32.50;15.95;;;21.30;77.60;;;;;;5046807;28;20500;-64
2021/06/30 09:20:07;;;;;;;22.80;13.63;;;21.30;77.50;;;;;;5047354;28;20107;-65
2021/06/30 09:22:52;;;;;;;19.17;13.45;;;21.30;77.20;;;;;;5047109;28;20606;-66
2021/06/30 09:25:28;;;;;;;19.27;13.23;;;21.30;77.30;;;;;;5046951;28;20032;-66
2021/06/30 09:27:54;;;;;;;19.50;12.85;;;21.20;77.60;;;;;;5047054;28;20028;-66
2021/06/30 09:30:20;;;;;;;26.77;15.10;;;21.30;77.50;;;;;;5037778;28;20033;-66
2021/06/30 09:32:55;;;;;;;19.90;13.70;;;21.30;77.60;;;;;;5042987;28;20095;-66
2021/06/30 09:35:26;;;;;;;19.30;12.50;;;21.40;77.20;;;;;;5046503;28;20481;-65
2021/06/30 09:37:52;;;;;;;16.50;13.10;;;21.30;77.10;;;;;;5028214;28;20024;-67
2021/06/30 09:40:18;;;;;;;17.52;12.52;;;21.20;77.00;;;;;;5046250;28;20043;-67
2021/06/30 09:42:45;;;;;;;18.05;12.30;;;21.20;76.70;;;;;;5046380;28;20033;-65
2021/06/30 09:45:13;;;;;;;19.23;12.45;;;21.30;76.90;;;;;;5045514;28;20028;-64
2021/06/30 09:47:44;;;;;;;23.02;12.13;;;21.30;77.30;;;;;;5045693;28;20029;-66
2021/06/30 09:50:10;;;;;;;17.63;12.20;;;21.40;77.70;;;;;;5046400;28;20033;-66
2021/06/30 09:52:40;;;;;;;17.67;11.75;;;21.30;77.10;;;;;;5047078;28;20033;-66
2021/06/30 09:55:26;;;;;;;17.92;11.38;;;21.30;78.00;;;;;;5046553;28;20025;-66
2021/06/30 09:57:52;;;;;;;15.55;10.88;;;21.10;78.50;;;;;;5028209;28;20037;-65
2021/06/30 10:00:18;;;;;;;16.48;10.38;;;21.20;78.10;;;;;;5028426;28;20048;-66
2021/06/30 10:02:48;;;;;;;16.95;11.07;;;21.20;77.90;;;;;;5046021;28;20433;-64
2021/06/30 10:05:13;;;;;;;19.58;10.45;;;21.30;77.80;;;;;;5045771;28;20025;-66
2021/06/30 10:07:39;;;;;;;17.48;11.00;;;21.40;77.80;;;;;;5045865;28;20110;-65
2021/06/30 10:10:07;;;;;;;17.65;11.10;;;21.40;77.40;;;;;;5045429;28;20244;-64
2021/06/30 10:12:34;;;;;;;15.80;9.65;;;21.40;78.40;;;;;;5046041;28;20052;-65
2021/06/30 10:15:03;;;;;;;19.30;10.00;;;21.40;77.30;;;;;;5028023;28;20029;-65
2021/06/30 10:17:29;;;;;;;16.42;9.57;;;21.50;77.20;;;;;;5045516;28;20032;-68
2021/06/30 10:19:56;;;;;;;12.38;8.38;;;21.50;77.20;;;;;;5046186;28;20044;-66
2021/06/30 10:22:26;;;;;;;15.80;9.73;;;21.40;76.90;;;;;;5046114;28;20538;-67
2021/06/30 10:24:52;;;;;;;14.15;8.50;;;21.50;77.10;;;;;;5045930;28;20049;-65
2021/06/30 10:27:19;;;;;;;16.08;8.57;;;21.50;77.10;;;;;;5039028;28;20110;-69
2021/06/30 10:29:52;;;;;;;15.80;8.25;;;21.50;77.10;;;;;;5044679;28;20021;-66
2021/06/30 10:32:18;;;;;;;12.30;7.57;;;21.60;76.50;;;;;;5028096;28;20104;-67
2021/06/30 10:34:49;;;;;;;14.13;8.25;;;21.60;76.00;;;;;;5027112;28;20025;-67
2021/06/30 10:37:32;;;;;;;15.05;7.30;;;21.60;76.60;;;;;;5027542;28;20020;-68
2021/06/30 10:40:03;;;;;;;12.30;6.95;;;21.60;76.60;;;;;;5045592;28;20032;-66
2021/06/30 10:42:34;;;;;;;8.65;6.38;;;21.60;76.60;;;;;;5027882;28;20120;-66
2021/06/30 10:45:21;;;;;;;11.65;6.72;;;21.60;76.00;;;;;;5045691;28;20031;-67
2021/06/30 10:48:07;;;;;;;9.35;6.70;;;21.70;76.60;;;;;;5041240;28;20068;-65
2021/06/30 10:50:37;;;;;;;9.32;6.18;;;21.70;76.30;;;;;;5040774;28;20057;-66
2021/06/30 10:53:10;;;;;;;11.18;6.35;;;21.70;76.30;;;;;;5044858;28;20020;-66
2021/06/30 10:55:36;;;;;;;10.10;7.03;;;21.80;76.60;;;;;;5045437;28;20032;-64
2021/06/30 10:58:11;;;;;;;10.45;7.68;;;21.70;76.10;;;;;;5045034;28;20025;-67
2021/06/30 11:00:44;;;;;;;9.93;7.55;;;21.60;77.10;;;;;;5045321;28;20052;-67
2021/06/30 11:03:30;;;;;;;9.70;7.85;;;21.50;76.50;;;;;;5043092;28;20891;-66
2021/06/30 11:06:13;;;;;;;10.30;7.13;;;21.60;77.10;;;;;;5034379;28;20037;-66
2021/06/30 11:08:50;;;;;;;9.23;6.63;;;21.70;76.50;;;;;;5027575;28;20453;-67
2021/06/30 11:11:29;;;;;;;10.88;6.95;;;21.80;75.90;;;;;;5011026;28;20026;-68
2021/06/30 11:14:05;;;;;;;11.00;7.97;;;21.80;76.10;;;;;;5011944;28;20109;-67
2021/06/30 11:16:40;;;;;;;10.32;7.22;;;21.80;75.90;;;;;;5027844;28;20522;-68
2021/06/30 11:19:19;;;;;;;11.68;7.30;;;21.70;75.40;;;;;;5029041;28;20029;-68
2021/06/30 11:21:58;;;;;;;12.50;7.50;;;21.70;75.30;;;;;;5040450;28;20025;-66
2021/06/30 11:24:36;;;;;;;13.50;7.45;;;21.70;76.50;;;;;;5042797;28;20017;-66
2021/06/30 11:27:21;;;;;;;13.40;7.38;;;21.80;75.90;;;;;;5071448;22;20114;-74
2021/06/30 11:30:01;;;;;;;10.68;6.57;;;21.80;75.30;;;;;;5079499;28;20547;-72
2021/06/30 11:32:37;;;;;;;12.15;6.75;;;21.90;75.10;;;;;;5071480;28;20032;-72
2021/06/30 11:35:24;;;;;;;9.70;7.25;;;21.80;75.00;;;;;;5071414;28;20019;-73
2021/06/30 11:37:59;;;;;;;13.15;7.30;;;21.80;75.30;;;;;;5050373;28;20397;-72
2021/06/30 11:40:32;;;;;;;12.40;7.72;;;21.90;75.80;;;;;;5076163;28;20121;-73
2021/06/30 11:43:00;;;;;;;10.52;7.55;;;21.90;76.00;;;;;;5078698;28;20029;-73
2021/06/30 11:45:33;;;;;;;9.95;7.20;;;21.80;75.10;;;;;;5055786;28;20105;-73
2021/06/30 11:48:01;;;;;;;9.75;6.88;;;21.80;74.80;;;;;;5073679;28;20070;-75
2021/06/30 11:50:43;;;;;;;10.57;7.45;;;21.80;75.00;;;;;;5074812;28;20040;-71
2021/06/30 11:53:09;;;;;;;11.45;7.43;;;21.70;74.90;;;;;;5074636;28;20183;-74
2021/06/30 11:55:39;;;;;;;16.00;7.97;;;21.80;75.20;;;;;;5074376;28;20028;-75
2021/06/30 11:58:04;;;;;;;10.48;7.60;;;21.80;75.40;;;;;;5078727;28;20098;-74
2021/06/30 12:00:32;;;;;;;12.43;7.90;;;21.80;75.90;;;;;;5074619;28;20058;-74
2021/06/30 12:03:03;;;;;;;10.25;7.65;;;21.80;75.60;;;;;;5061978;28;20028;-72
2021/06/30 12:05:35;;;;;;;11.87;8.17;;;21.90;75.20;;;;;;5063499;28;20025;-72
2021/06/30 12:08:00;;;;;;;10.77;8.35;;;21.90;74.80;;;;;;5061938;28;20275;-73
2021/06/30 12:10:29;;;;;;;10.93;8.35;;;22.00;74.50;;;;;;5056780;28;20021;-72
2021/06/30 12:12:55;;;;;;;11.30;8.85;;;22.00;74.20;;;;;;5060701;28;20033;-73
2021/06/30 12:15:21;;;;;;;11.55;8.77;;;22.00;74.40;;;;;;5073898;28;20024;-73
2021/06/30 12:17:52;;;;;;;10.75;8.98;;;22.00;74.80;;;;;;5072553;28;20070;-74
2021/06/30 12:20:21;;;;;;;11.88;8.88;;;22.10;74.00;;;;;;5055512;28;20543;-72
2021/06/30 12:22:47;;;;;;;11.77;9.02;;;22.10;74.10;;;;;;5074420;28;20036;-73
2021/06/30 12:25:15;;;;;;;11.00;8.95;;;22.10;74.10;;;;;;5073341;28;20031;-73
2021/06/30 12:27:52;;;;;;;11.55;9.13;;;22.00;74.20;;;;;;5058483;28;20033;-74
2021/06/30 12:30:21;;;;;;;11.75;9.65;;;22.00;74.80;;;;;;5074493;28;20388;-72
2021/06/30 12:32:48;;;;;;;13.65;10.75;;;21.90;74.90;;;;;;5056418;28;20074;-73
2021/06/30 12:35:16;;;;;;;13.50;10.65;;;21.90;74.80;;;;;;5056366;28;20020;-73
2021/06/30 12:37:45;;;;;;;12.30;10.52;;;21.90;74.70;;;;;;5073892;28;20397;-74